sensor_id;sensor_type;location;lat;lon;timestamp;P1;durP1;ratioP1;P2;durP2;ratioP2
42332;SDS011;27984;51.476;5.702;2022-12-07T00:01:36;21.13;;;14.27;;
42332;SDS011;27984;51.476;5.702;2022-12-07T00:04:04;24.92;;;14.95;;
42332;SDS011;27984;51.476;5.702;2022-12-07T00:06:34;21.63;;;15.30;;
42332;SDS011;27984;51.476;5.702;2022-12-07T00:09:01;22.73;;;15.43;;
42332;SDS011;27984;51.476;5.702;2022-12-07T00:11:27;29.42;;;16.02;;
42332;SDS011;27984;51.476;5.702;2022-12-07T00:13:54;24.10;;;15.13;;
42332;SDS011;27984;51.476;5.702;2022-12-07T00:16:21;22.77;;;15.82;;
42332;SDS011;27984;51.476;5.702;2022-12-07T00:18:47;24.65;;;15.85;;
42332;SDS011;27984;51.476;5.702;2022-12-07T00:21:14;25.67;;;15.90;;
42332;SDS011;27984;51.476;5.702;2022-12-07T00:23:40;22.02;;;15.77;;
42332;SDS011;27984;51.476;5.702;2022-12-07T00:26:07;25.05;;;15.98;;
42332;SDS011;27984;51.476;5.702;2022-12-07T00:28:34;23.48;;;15.73;;
42332;SDS011;27984;51.476;5.702;2022-12-07T00:31:04;22.00;;;16.08;;
42332;SDS011;27984;51.476;5.702;2022-12-07T00:33:31;26.13;;;15.75;;
42332;SDS011;27984;51.476;5.702;2022-12-07T00:35:57;27.00;;;16.50;;
42332;SDS011;27984;51.476;5.702;2022-12-07T00:38:24;27.67;;;16.00;;
42332;SDS011;27984;51.476;5.702;2022-12-07T00:40:54;27.63;;;15.93;;
42332;SDS011;27984;51.476;5.702;2022-12-07T00:43:21;27.35;;;16.52;;
42332;SDS011;27984;51.476;5.702;2022-12-07T00:45:47;24.05;;;16.30;;
42332;SDS011;27984;51.476;5.702;2022-12-07T00:48:13;23.13;;;16.00;;
42332;SDS011;27984;51.476;5.702;2022-12-07T00:50:42;26.05;;;16.60;;
42332;SDS011;27984;51.476;5.702;2022-12-07T00:53:10;25.35;;;15.75;;
42332;SDS011;27984;51.476;5.702;2022-12-07T00:55:36;27.70;;;16.27;;
42332;SDS011;27984;51.476;5.702;2022-12-07T00:58:02;30.77;;;15.55;;
42332;SDS011;27984;51.476;5.702;2022-12-07T01:00:29;22.67;;;15.85;;
42332;SDS011;27984;51.476;5.702;2022-12-07T01:02:55;24.55;;;15.85;;
42332;SDS011;27984;51.476;5.702;2022-12-07T01:05:21;24.08;;;16.02;;
42332;SDS011;27984;51.476;5.702;2022-12-07T01:07:47;25.25;;;16.40;;
42332;SDS011;27984;51.476;5.702;2022-12-07T01:10:13;24.67;;;15.98;;
42332;SDS011;27984;51.476;5.702;2022-12-07T01:12:39;30.98;;;19.27;;
42332;SDS011;27984;51.476;5.702;2022-12-07T01:15:06;31.48;;;18.15;;
42332;SDS011;27984;51.476;5.702;2022-12-07T01:17:32;32.28;;;18.25;;
42332;SDS011;27984;51.476;5.702;2022-12-07T01:19:58;28.60;;;17.48;;
42332;SDS011;27984;51.476;5.702;2022-12-07T01:22:24;24.95;;;17.25;;
42332;SDS011;27984;51.476;5.702;2022-12-07T01:24:50;25.38;;;16.73;;
42332;SDS011;27984;51.476;5.702;2022-12-07T01:27:16;27.15;;;16.83;;
42332;SDS011;27984;51.476;5.702;2022-12-07T01:29:42;26.65;;;16.23;;
42332;SDS011;27984;51.476;5.702;2022-12-07T01:32:08;25.02;;;16.08;;
42332;SDS011;27984;51.476;5.702;2022-12-07T01:34:34;21.83;;;14.88;;
42332;SDS011;27984;51.476;5.702;2022-12-07T01:37:00;22.08;;;15.05;;
42332;SDS011;27984;51.476;5.702;2022-12-07T01:39:26;22.25;;;14.20;;
42332;SDS011;27984;51.476;5.702;2022-12-07T01:41:52;23.92;;;15.32;;
42332;SDS011;27984;51.476;5.702;2022-12-07T01:44:22;23.02;;;14.30;;
42332;SDS011;27984;51.476;5.702;2022-12-07T01:46:59;20.40;;;14.00;;
42332;SDS011;27984;51.476;5.702;2022-12-07T01:51:52;20.35;;;12.88;;
42332;SDS011;27984;51.476;5.702;2022-12-07T01:54:20;24.25;;;13.02;;
42332;SDS011;27984;51.476;5.702;2022-12-07T01:56:51;20.55;;;12.80;;
42332;SDS011;27984;51.476;5.702;2022-12-07T01:59:18;17.13;;;12.65;;
42332;SDS011;27984;51.476;5.702;2022-12-07T02:01:44;20.90;;;12.05;;
42332;SDS011;27984;51.476;5.702;2022-12-07T02:04:10;18.65;;;11.45;;
42332;SDS011;27984;51.476;5.702;2022-12-07T02:06:36;17.45;;;11.82;;
42332;SDS011;27984;51.476;5.702;2022-12-07T02:09:03;19.48;;;11.32;;
42332;SDS011;27984;51.476;5.702;2022-12-07T02:11:29;17.48;;;11.90;;
42332;SDS011;27984;51.476;5.702;2022-12-07T02:13:56;17.80;;;11.77;;
42332;SDS011;27984;51.476;5.702;2022-12-07T02:16:36;18.98;;;11.88;;
42332;SDS011;27984;51.476;5.702;2022-12-07T02:22:17;18.20;;;12.43;;
42332;SDS011;27984;51.476;5.702;2022-12-07T02:32:42;18.17;;;12.13;;
42332;SDS011;27984;51.476;5.702;2022-12-07T02:35:10;22.15;;;12.27;;
42332;SDS011;27984;51.476;5.702;2022-12-07T02:37:52;15.68;;;11.50;;
42332;SDS011;27984;51.476;5.702;2022-12-07T02:43:08;18.00;;;11.23;;
42332;SDS011;27984;51.476;5.702;2022-12-07T02:45:31;18.52;;;10.95;;
42332;SDS011;27984;51.476;5.702;2022-12-07T02:47:58;16.48;;;11.43;;
42332;SDS011;27984;51.476;5.702;2022-12-07T02:50:25;16.98;;;11.30;;
42332;SDS011;27984;51.476;5.702;2022-12-07T02:52:51;15.93;;;11.32;;
42332;SDS011;27984;51.476;5.702;2022-12-07T02:55:18;19.42;;;11.63;;
42332;SDS011;27984;51.476;5.702;2022-12-07T02:57:50;17.83;;;11.35;;
42332;SDS011;27984;51.476;5.702;2022-12-07T03:00:20;16.67;;;11.57;;
42332;SDS011;27984;51.476;5.702;2022-12-07T03:02:51;19.17;;;12.50;;
42332;SDS011;27984;51.476;5.702;2022-12-07T03:16:03;16.80;;;12.02;;
42332;SDS011;27984;51.476;5.702;2022-12-07T03:18:31;19.77;;;12.95;;
42332;SDS011;27984;51.476;5.702;2022-12-07T03:21:04;20.77;;;13.05;;
42332;SDS011;27984;51.476;5.702;2022-12-07T03:23:30;21.05;;;13.18;;
42332;SDS011;27984;51.476;5.702;2022-12-07T03:26:00;21.55;;;12.93;;
42332;SDS011;27984;51.476;5.702;2022-12-07T03:28:31;19.58;;;13.65;;
42332;SDS011;27984;51.476;5.702;2022-12-07T03:31:03;21.13;;;13.88;;
42332;SDS011;27984;51.476;5.702;2022-12-07T03:33:42;19.55;;;13.48;;
42332;SDS011;27984;51.476;5.702;2022-12-07T03:36:21;17.85;;;13.50;;
42332;SDS011;27984;51.476;5.702;2022-12-07T03:38:49;19.23;;;13.25;;
42332;SDS011;27984;51.476;5.702;2022-12-07T03:41:22;18.67;;;12.80;;
42332;SDS011;27984;51.476;5.702;2022-12-07T03:43:49;20.83;;;12.88;;
42332;SDS011;27984;51.476;5.702;2022-12-07T03:51:39;17.13;;;12.40;;
42332;SDS011;27984;51.476;5.702;2022-12-07T03:56:47;19.23;;;11.88;;
42332;SDS011;27984;51.476;5.702;2022-12-07T03:59:14;16.10;;;10.60;;
42332;SDS011;27984;51.476;5.702;2022-12-07T04:01:44;20.23;;;10.85;;
42332;SDS011;27984;51.476;5.702;2022-12-07T04:04:10;15.88;;;10.85;;
42332;SDS011;27984;51.476;5.702;2022-12-07T04:06:36;16.63;;;11.02;;
42332;SDS011;27984;51.476;5.702;2022-12-07T04:09:02;19.77;;;10.98;;
42332;SDS011;27984;51.476;5.702;2022-12-07T04:11:28;15.63;;;11.25;;
42332;SDS011;27984;51.476;5.702;2022-12-07T04:13:57;17.58;;;11.02;;
42332;SDS011;27984;51.476;5.702;2022-12-07T04:16:41;15.52;;;11.00;;
42332;SDS011;27984;51.476;5.702;2022-12-07T04:19:10;16.10;;;10.38;;
42332;SDS011;27984;51.476;5.702;2022-12-07T04:21:36;15.68;;;9.88;;
42332;SDS011;27984;51.476;5.702;2022-12-07T04:24:02;15.88;;;9.90;;
42332;SDS011;27984;51.476;5.702;2022-12-07T04:26:28;18.45;;;10.10;;
42332;SDS011;27984;51.476;5.702;2022-12-07T04:28:54;13.38;;;9.50;;
42332;SDS011;27984;51.476;5.702;2022-12-07T04:31:20;13.85;;;9.60;;
42332;SDS011;27984;51.476;5.702;2022-12-07T04:33:46;13.73;;;9.52;;
42332;SDS011;27984;51.476;5.702;2022-12-07T04:36:12;14.27;;;8.75;;
42332;SDS011;27984;51.476;5.702;2022-12-07T04:38:43;15.20;;;9.10;;
42332;SDS011;27984;51.476;5.702;2022-12-07T04:41:09;13.82;;;8.70;;
42332;SDS011;27984;51.476;5.702;2022-12-07T04:43:35;13.75;;;8.45;;
42332;SDS011;27984;51.476;5.702;2022-12-07T04:46:01;15.52;;;8.30;;
42332;SDS011;27984;51.476;5.702;2022-12-07T04:48:30;14.45;;;8.20;;
42332;SDS011;27984;51.476;5.702;2022-12-07T04:50:56;11.38;;;8.00;;
42332;SDS011;27984;51.476;5.702;2022-12-07T04:53:22;15.30;;;8.40;;
42332;SDS011;27984;51.476;5.702;2022-12-07T04:55:48;13.70;;;8.75;;
42332;SDS011;27984;51.476;5.702;2022-12-07T04:58:14;13.95;;;8.25;;
42332;SDS011;27984;51.476;5.702;2022-12-07T05:00:40;10.63;;;8.15;;
42332;SDS011;27984;51.476;5.702;2022-12-07T05:03:06;11.13;;;8.55;;
42332;SDS011;27984;51.476;5.702;2022-12-07T05:05:33;12.77;;;8.30;;
42332;SDS011;27984;51.476;5.702;2022-12-07T05:07:58;16.42;;;8.45;;
42332;SDS011;27984;51.476;5.702;2022-12-07T05:10:24;17.80;;;8.95;;
42332;SDS011;27984;51.476;5.702;2022-12-07T05:12:50;14.52;;;7.82;;
42332;SDS011;27984;51.476;5.702;2022-12-07T05:15:16;14.73;;;8.30;;
42332;SDS011;27984;51.476;5.702;2022-12-07T05:17:43;13.50;;;8.02;;
42332;SDS011;27984;51.476;5.702;2022-12-07T05:20:09;15.32;;;8.73;;
42332;SDS011;27984;51.476;5.702;2022-12-07T05:22:35;15.57;;;8.35;;
42332;SDS011;27984;51.476;5.702;2022-12-07T05:25:01;14.32;;;8.73;;
42332;SDS011;27984;51.476;5.702;2022-12-07T05:27:27;9.38;;;8.07;;
42332;SDS011;27984;51.476;5.702;2022-12-07T05:29:53;11.85;;;7.70;;
42332;SDS011;27984;51.476;5.702;2022-12-07T05:32:19;12.10;;;8.15;;
42332;SDS011;27984;51.476;5.702;2022-12-07T05:34:45;12.93;;;7.75;;
42332;SDS011;27984;51.476;5.702;2022-12-07T05:37:11;13.13;;;7.93;;
42332;SDS011;27984;51.476;5.702;2022-12-07T05:39:37;16.33;;;7.95;;
42332;SDS011;27984;51.476;5.702;2022-12-07T05:42:05;16.13;;;7.60;;
42332;SDS011;27984;51.476;5.702;2022-12-07T05:44:44;15.02;;;8.38;;
42332;SDS011;27984;51.476;5.702;2022-12-07T05:47:11;13.02;;;8.07;;
42332;SDS011;27984;51.476;5.702;2022-12-07T05:49:38;15.25;;;8.23;;
42332;SDS011;27984;51.476;5.702;2022-12-07T05:52:04;15.40;;;8.48;;
42332;SDS011;27984;51.476;5.702;2022-12-07T05:54:33;13.18;;;8.68;;
42332;SDS011;27984;51.476;5.702;2022-12-07T05:56:59;12.88;;;8.25;;
42332;SDS011;27984;51.476;5.702;2022-12-07T05:59:27;11.48;;;8.25;;
42332;SDS011;27984;51.476;5.702;2022-12-07T06:01:55;13.55;;;8.27;;
42332;SDS011;27984;51.476;5.702;2022-12-07T06:04:22;16.63;;;9.60;;
42332;SDS011;27984;51.476;5.702;2022-12-07T06:06:49;18.30;;;9.48;;
42332;SDS011;27984;51.476;5.702;2022-12-07T06:09:18;16.45;;;9.77;;
42332;SDS011;27984;51.476;5.702;2022-12-07T06:11:45;14.05;;;9.23;;
42332;SDS011;27984;51.476;5.702;2022-12-07T06:14:29;14.00;;;9.60;;
42332;SDS011;27984;51.476;5.702;2022-12-07T06:16:55;14.68;;;9.50;;
42332;SDS011;27984;51.476;5.702;2022-12-07T06:19:24;17.65;;;9.98;;
42332;SDS011;27984;51.476;5.702;2022-12-07T06:21:50;17.70;;;10.32;;
42332;SDS011;27984;51.476;5.702;2022-12-07T06:24:16;15.40;;;9.70;;
42332;SDS011;27984;51.476;5.702;2022-12-07T06:26:43;13.57;;;9.68;;
42332;SDS011;27984;51.476;5.702;2022-12-07T06:29:09;20.67;;;10.88;;
42332;SDS011;27984;51.476;5.702;2022-12-07T06:31:35;15.35;;;10.52;;
42332;SDS011;27984;51.476;5.702;2022-12-07T06:34:02;15.30;;;9.65;;
42332;SDS011;27984;51.476;5.702;2022-12-07T06:36:29;20.50;;;10.43;;
42332;SDS011;27984;51.476;5.702;2022-12-07T06:38:55;15.65;;;11.02;;
42332;SDS011;27984;51.476;5.702;2022-12-07T06:41:23;22.45;;;11.35;;
42332;SDS011;27984;51.476;5.702;2022-12-07T06:43:50;18.20;;;11.18;;
42332;SDS011;27984;51.476;5.702;2022-12-07T06:46:16;19.33;;;11.63;;
42332;SDS011;27984;51.476;5.702;2022-12-07T06:48:42;17.50;;;11.25;;
42332;SDS011;27984;51.476;5.702;2022-12-07T06:51:08;21.45;;;11.50;;
42332;SDS011;27984;51.476;5.702;2022-12-07T06:53:35;16.75;;;10.77;;
42332;SDS011;27984;51.476;5.702;2022-12-07T06:56:04;18.38;;;11.70;;
42332;SDS011;27984;51.476;5.702;2022-12-07T06:58:30;20.52;;;10.52;;
42332;SDS011;27984;51.476;5.702;2022-12-07T07:00:56;16.58;;;10.63;;
42332;SDS011;27984;51.476;5.702;2022-12-07T07:03:22;22.83;;;11.57;;
42332;SDS011;27984;51.476;5.702;2022-12-07T07:05:48;20.83;;;11.18;;
42332;SDS011;27984;51.476;5.702;2022-12-07T07:08:14;15.73;;;10.30;;
42332;SDS011;27984;51.476;5.702;2022-12-07T07:10:40;19.55;;;10.85;;
42332;SDS011;27984;51.476;5.702;2022-12-07T07:13:09;20.48;;;10.07;;
42332;SDS011;27984;51.476;5.702;2022-12-07T07:15:36;17.35;;;9.80;;
42332;SDS011;27984;51.476;5.702;2022-12-07T07:18:03;16.50;;;9.65;;
42332;SDS011;27984;51.476;5.702;2022-12-07T07:20:29;14.98;;;9.15;;
42332;SDS011;27984;51.476;5.702;2022-12-07T07:22:55;17.55;;;9.20;;
42332;SDS011;27984;51.476;5.702;2022-12-07T07:25:22;17.10;;;9.25;;
42332;SDS011;27984;51.476;5.702;2022-12-07T07:27:48;15.10;;;9.77;;
42332;SDS011;27984;51.476;5.702;2022-12-07T07:30:14;20.10;;;9.50;;
42332;SDS011;27984;51.476;5.702;2022-12-07T07:32:40;15.40;;;8.70;;
42332;SDS011;27984;51.476;5.702;2022-12-07T07:35:06;14.43;;;8.77;;
42332;SDS011;27984;51.476;5.702;2022-12-07T07:37:32;16.70;;;8.73;;
42332;SDS011;27984;51.476;5.702;2022-12-07T07:40:00;18.88;;;8.57;;
42332;SDS011;27984;51.476;5.702;2022-12-07T07:42:26;19.98;;;8.52;;
42332;SDS011;27984;51.476;5.702;2022-12-07T07:44:52;12.52;;;8.30;;
42332;SDS011;27984;51.476;5.702;2022-12-07T07:47:18;13.98;;;8.30;;
42332;SDS011;27984;51.476;5.702;2022-12-07T07:49:44;17.27;;;8.45;;
42332;SDS011;27984;51.476;5.702;2022-12-07T07:52:10;16.60;;;8.73;;
42332;SDS011;27984;51.476;5.702;2022-12-07T07:54:36;18.50;;;9.30;;
42332;SDS011;27984;51.476;5.702;2022-12-07T07:57:02;17.90;;;8.95;;
42332;SDS011;27984;51.476;5.702;2022-12-07T07:59:28;16.80;;;8.07;;
42332;SDS011;27984;51.476;5.702;2022-12-07T08:01:54;12.35;;;7.75;;
42332;SDS011;27984;51.476;5.702;2022-12-07T08:04:20;12.60;;;7.55;;
42332;SDS011;27984;51.476;5.702;2022-12-07T08:06:46;14.50;;;7.85;;
42332;SDS011;27984;51.476;5.702;2022-12-07T08:09:12;12.90;;;8.10;;
42332;SDS011;27984;51.476;5.702;2022-12-07T08:11:38;13.45;;;7.95;;
42332;SDS011;27984;51.476;5.702;2022-12-07T08:14:07;13.52;;;7.68;;
42332;SDS011;27984;51.476;5.702;2022-12-07T08:16:33;22.17;;;7.47;;
42332;SDS011;27984;51.476;5.702;2022-12-07T08:18:59;13.05;;;7.53;;
42332;SDS011;27984;51.476;5.702;2022-12-07T08:21:24;16.85;;;8.20;;
42332;SDS011;27984;51.476;5.702;2022-12-07T08:23:50;15.20;;;7.18;;
42332;SDS011;27984;51.476;5.702;2022-12-07T08:26:16;14.00;;;7.20;;
42332;SDS011;27984;51.476;5.702;2022-12-07T08:28:43;16.52;;;7.18;;
42332;SDS011;27984;51.476;5.702;2022-12-07T08:31:14;11.02;;;7.35;;
42332;SDS011;27984;51.476;5.702;2022-12-07T08:33:46;14.98;;;8.23;;
42332;SDS011;27984;51.476;5.702;2022-12-07T08:36:13;15.18;;;7.85;;
42332;SDS011;27984;51.476;5.702;2022-12-07T08:38:39;14.93;;;7.72;;
42332;SDS011;27984;51.476;5.702;2022-12-07T08:41:06;13.48;;;8.07;;
42332;SDS011;27984;51.476;5.702;2022-12-07T08:43:32;18.35;;;7.43;;
42332;SDS011;27984;51.476;5.702;2022-12-07T08:48:48;13.75;;;7.20;;
42332;SDS011;27984;51.476;5.702;2022-12-07T08:51:15;11.45;;;6.50;;
42332;SDS011;27984;51.476;5.702;2022-12-07T08:53:41;14.88;;;6.05;;
42332;SDS011;27984;51.476;5.702;2022-12-07T08:56:08;11.85;;;5.75;;
42332;SDS011;27984;51.476;5.702;2022-12-07T08:58:34;11.38;;;5.82;;
42332;SDS011;27984;51.476;5.702;2022-12-07T09:01:01;10.88;;;5.78;;
42332;SDS011;27984;51.476;5.702;2022-12-07T09:03:27;11.05;;;5.47;;
42332;SDS011;27984;51.476;5.702;2022-12-07T09:05:53;11.52;;;5.75;;
42332;SDS011;27984;51.476;5.702;2022-12-07T09:08:20;10.35;;;5.57;;
42332;SDS011;27984;51.476;5.702;2022-12-07T09:10:46;13.52;;;5.70;;
42332;SDS011;27984;51.476;5.702;2022-12-07T09:13:12;12.48;;;4.93;;
42332;SDS011;27984;51.476;5.702;2022-12-07T09:15:38;11.18;;;4.97;;
42332;SDS011;27984;51.476;5.702;2022-12-07T09:18:04;7.57;;;3.80;;
42332;SDS011;27984;51.476;5.702;2022-12-07T09:20:31;10.45;;;3.35;;
42332;SDS011;27984;51.476;5.702;2022-12-07T09:22:56;6.22;;;3.05;;
42332;SDS011;27984;51.476;5.702;2022-12-07T09:25:22;7.45;;;3.03;;
42332;SDS011;27984;51.476;5.702;2022-12-07T09:27:54;7.47;;;3.45;;
42332;SDS011;27984;51.476;5.702;2022-12-07T09:30:20;7.63;;;3.53;;
42332;SDS011;27984;51.476;5.702;2022-12-07T09:32:46;9.93;;;3.85;;
42332;SDS011;27984;51.476;5.702;2022-12-07T09:35:12;10.23;;;3.78;;
42332;SDS011;27984;51.476;5.702;2022-12-07T09:37:38;8.75;;;3.92;;
42332;SDS011;27984;51.476;5.702;2022-12-07T09:40:04;6.70;;;3.30;;
42332;SDS011;27984;51.476;5.702;2022-12-07T09:42:35;8.90;;;3.60;;
42332;SDS011;27984;51.476;5.702;2022-12-07T09:45:02;6.45;;;3.22;;
42332;SDS011;27984;51.476;5.702;2022-12-07T09:47:30;9.82;;;4.00;;
42332;SDS011;27984;51.476;5.702;2022-12-07T09:49:58;9.60;;;3.60;;
42332;SDS011;27984;51.476;5.702;2022-12-07T09:52:26;10.85;;;3.50;;
42332;SDS011;27984;51.476;5.702;2022-12-07T09:54:53;11.57;;;4.25;;
42332;SDS011;27984;51.476;5.702;2022-12-07T09:57:21;11.57;;;3.65;;
42332;SDS011;27984;51.476;5.702;2022-12-07T09:59:48;8.90;;;3.78;;
42332;SDS011;27984;51.476;5.702;2022-12-07T10:04:49;11.45;;;4.10;;
42332;SDS011;27984;51.476;5.702;2022-12-07T10:07:15;11.65;;;3.50;;
42332;SDS011;27984;51.476;5.702;2022-12-07T10:09:41;9.88;;;3.65;;
42332;SDS011;27984;51.476;5.702;2022-12-07T10:12:11;9.27;;;3.72;;
42332;SDS011;27984;51.476;5.702;2022-12-07T10:14:39;8.40;;;3.40;;
42332;SDS011;27984;51.476;5.702;2022-12-07T10:17:48;9.48;;;3.15;;
42332;SDS011;27984;51.476;5.702;2022-12-07T10:20:14;6.28;;;3.13;;
42332;SDS011;27984;51.476;5.702;2022-12-07T10:25:22;5.78;;;2.95;;
42332;SDS011;27984;51.476;5.702;2022-12-07T10:28:22;8.50;;;2.60;;
42332;SDS011;27984;51.476;5.702;2022-12-07T10:33:29;8.90;;;2.83;;
42332;SDS011;27984;51.476;5.702;2022-12-07T10:35:55;9.07;;;2.97;;
42332;SDS011;27984;51.476;5.702;2022-12-07T10:38:21;7.95;;;2.50;;
42332;SDS011;27984;51.476;5.702;2022-12-07T10:41:02;10.77;;;2.58;;
42332;SDS011;27984;51.476;5.702;2022-12-07T10:43:28;7.45;;;2.40;;
42332;SDS011;27984;51.476;5.702;2022-12-07T10:46:18;5.95;;;1.83;;
42332;SDS011;27984;51.476;5.702;2022-12-07T10:51:27;5.45;;;2.15;;
42332;SDS011;27984;51.476;5.702;2022-12-07T10:54:08;5.43;;;1.85;;
42332;SDS011;27984;51.476;5.702;2022-12-07T10:56:45;5.43;;;1.80;;
42332;SDS011;27984;51.476;5.702;2022-12-07T11:12:22;8.50;;;2.20;;
42332;SDS011;27984;51.476;5.702;2022-12-07T11:14:44;6.50;;;1.90;;
42332;SDS011;27984;51.476;5.702;2022-12-07T11:17:17;7.90;;;2.20;;
42332;SDS011;27984;51.476;5.702;2022-12-07T11:30:10;6.28;;;2.05;;
42332;SDS011;27984;51.476;5.702;2022-12-07T11:32:42;7.07;;;2.20;;
42332;SDS011;27984;51.476;5.702;2022-12-07T11:37:45;5.60;;;1.88;;
42332;SDS011;27984;51.476;5.702;2022-12-07T11:43:32;5.30;;;1.77;;
42332;SDS011;27984;51.476;5.702;2022-12-07T11:45:33;4.90;;;1.63;;
42332;SDS011;27984;51.476;5.702;2022-12-07T11:48:01;6.47;;;2.13;;
42332;SDS011;27984;51.476;5.702;2022-12-07T11:52:58;5.63;;;1.98;;
42332;SDS011;27984;51.476;5.702;2022-12-07T11:58:27;5.88;;;2.00;;
42332;SDS011;27984;51.476;5.702;2022-12-07T12:00:56;7.60;;;2.10;;
42332;SDS011;27984;51.476;5.702;2022-12-07T12:03:30;6.93;;;2.25;;
42332;SDS011;27984;51.476;5.702;2022-12-07T12:05:58;7.70;;;2.00;;
42332;SDS011;27984;51.476;5.702;2022-12-07T12:08:29;11.45;;;2.50;;
42332;SDS011;27984;51.476;5.702;2022-12-07T12:13:48;8.35;;;2.45;;
42332;SDS011;27984;51.476;5.702;2022-12-07T12:16:37;9.70;;;2.63;;
42332;SDS011;27984;51.476;5.702;2022-12-07T12:19:23;6.57;;;2.20;;
42332;SDS011;27984;51.476;5.702;2022-12-07T12:21:53;7.68;;;2.47;;
42332;SDS011;27984;51.476;5.702;2022-12-07T12:24:22;10.00;;;2.25;;
42332;SDS011;27984;51.476;5.702;2022-12-07T12:26:50;10.05;;;1.98;;
42332;SDS011;27984;51.476;5.702;2022-12-07T12:29:26;5.78;;;2.00;;
42332;SDS011;27984;51.476;5.702;2022-12-07T12:32:12;6.05;;;2.20;;
42332;SDS011;27984;51.476;5.702;2022-12-07T12:34:40;6.18;;;1.73;;
42332;SDS011;27984;51.476;5.702;2022-12-07T12:42:47;9.52;;;2.13;;
42332;SDS011;27984;51.476;5.702;2022-12-07T12:47:56;5.63;;;2.08;;
42332;SDS011;27984;51.476;5.702;2022-12-07T12:50:23;7.95;;;2.00;;
42332;SDS011;27984;51.476;5.702;2022-12-07T12:52:51;9.32;;;2.25;;
42332;SDS011;27984;51.476;5.702;2022-12-07T12:55:18;6.40;;;1.90;;
42332;SDS011;27984;51.476;5.702;2022-12-07T12:57:46;8.07;;;2.35;;
42332;SDS011;27984;51.476;5.702;2022-12-07T13:00:19;9.27;;;2.50;;
42332;SDS011;27984;51.476;5.702;2022-12-07T13:02:53;6.57;;;1.90;;
42332;SDS011;27984;51.476;5.702;2022-12-07T13:05:20;6.85;;;1.70;;
42332;SDS011;27984;51.476;5.702;2022-12-07T13:15:35;12.90;;;2.15;;
42332;SDS011;27984;51.476;5.702;2022-12-07T13:18:47;6.07;;;1.63;;
42332;SDS011;27984;51.476;5.702;2022-12-07T13:20:49;6.28;;;1.65;;
42332;SDS011;27984;51.476;5.702;2022-12-07T13:23:23;8.30;;;1.52;;
42332;SDS011;27984;51.476;5.702;2022-12-07T13:28:18;5.38;;;1.40;;
42332;SDS011;27984;51.476;5.702;2022-12-07T13:33:17;2.45;;;1.10;;
42332;SDS011;27984;51.476;5.702;2022-12-07T13:35:44;4.97;;;1.17;;
42332;SDS011;27984;51.476;5.702;2022-12-07T13:38:22;2.83;;;1.13;;
42332;SDS011;27984;51.476;5.702;2022-12-07T13:41:10;3.00;;;1.10;;
42332;SDS011;27984;51.476;5.702;2022-12-07T13:46:24;5.45;;;1.20;;
42332;SDS011;27984;51.476;5.702;2022-12-07T13:48:52;6.25;;;1.42;;
42332;SDS011;27984;51.476;5.702;2022-12-07T13:51:21;6.07;;;1.30;;
42332;SDS011;27984;51.476;5.702;2022-12-07T13:54:09;4.47;;;1.40;;
42332;SDS011;27984;51.476;5.702;2022-12-07T13:56:34;3.78;;;1.05;;
42332;SDS011;27984;51.476;5.702;2022-12-07T13:59:00;4.57;;;1.60;;
42332;SDS011;27984;51.476;5.702;2022-12-07T14:01:26;3.35;;;1.02;;
42332;SDS011;27984;51.476;5.702;2022-12-07T14:03:53;7.32;;;1.90;;
42332;SDS011;27984;51.476;5.702;2022-12-07T14:06:23;5.40;;;1.77;;
42332;SDS011;27984;51.476;5.702;2022-12-07T14:09:05;7.40;;;1.70;;
42332;SDS011;27984;51.476;5.702;2022-12-07T14:11:31;7.75;;;2.00;;
42332;SDS011;27984;51.476;5.702;2022-12-07T14:14:01;5.35;;;1.75;;
42332;SDS011;27984;51.476;5.702;2022-12-07T14:16:28;5.93;;;1.90;;
42332;SDS011;27984;51.476;5.702;2022-12-07T14:18:56;7.82;;;1.60;;
42332;SDS011;27984;51.476;5.702;2022-12-07T14:21:26;6.03;;;1.73;;
42332;SDS011;27984;51.476;5.702;2022-12-07T14:26:51;4.40;;;1.63;;
42332;SDS011;27984;51.476;5.702;2022-12-07T14:31:46;8.20;;;2.35;;
42332;SDS011;27984;51.476;5.702;2022-12-07T14:34:12;6.53;;;2.00;;
42332;SDS011;27984;51.476;5.702;2022-12-07T14:36:38;6.55;;;2.05;;
42332;SDS011;27984;51.476;5.702;2022-12-07T14:39:04;6.45;;;2.10;;
42332;SDS011;27984;51.476;5.702;2022-12-07T14:41:30;9.93;;;2.03;;
42332;SDS011;27984;51.476;5.702;2022-12-07T14:44:15;9.25;;;2.42;;
42332;SDS011;27984;51.476;5.702;2022-12-07T14:46:41;4.72;;;1.90;;
42332;SDS011;27984;51.476;5.702;2022-12-07T14:49:07;5.13;;;1.73;;
42332;SDS011;27984;51.476;5.702;2022-12-07T14:51:33;5.38;;;1.95;;
42332;SDS011;27984;51.476;5.702;2022-12-07T14:53:59;10.10;;;2.10;;
42332;SDS011;27984;51.476;5.702;2022-12-07T14:56:25;4.05;;;1.95;;
42332;SDS011;27984;51.476;5.702;2022-12-07T14:58:52;11.35;;;2.40;;
42332;SDS011;27984;51.476;5.702;2022-12-07T15:01:18;6.10;;;2.00;;
42332;SDS011;27984;51.476;5.702;2022-12-07T15:03:45;7.65;;;2.00;;
42332;SDS011;27984;51.476;5.702;2022-12-07T15:06:13;6.60;;;2.47;;
42332;SDS011;27984;51.476;5.702;2022-12-07T15:08:39;4.13;;;1.90;;
42332;SDS011;27984;51.476;5.702;2022-12-07T15:11:05;6.40;;;2.33;;
42332;SDS011;27984;51.476;5.702;2022-12-07T15:13:31;7.40;;;2.42;;
42332;SDS011;27984;51.476;5.702;2022-12-07T15:16:16;5.85;;;2.22;;
42332;SDS011;27984;51.476;5.702;2022-12-07T15:18:43;7.35;;;2.30;;
42332;SDS011;27984;51.476;5.702;2022-12-07T15:21:13;6.75;;;2.33;;
42332;SDS011;27984;51.476;5.702;2022-12-07T15:23:40;8.50;;;2.97;;
42332;SDS011;27984;51.476;5.702;2022-12-07T15:26:06;7.80;;;2.70;;
42332;SDS011;27984;51.476;5.702;2022-12-07T15:28:33;8.57;;;2.72;;
42332;SDS011;27984;51.476;5.702;2022-12-07T15:30:59;6.25;;;2.80;;
42332;SDS011;27984;51.476;5.702;2022-12-07T15:33:25;9.93;;;2.90;;
42332;SDS011;27984;51.476;5.702;2022-12-07T15:35:51;7.53;;;3.03;;
42332;SDS011;27984;51.476;5.702;2022-12-07T15:38:17;7.18;;;2.83;;
42332;SDS011;27984;51.476;5.702;2022-12-07T15:40:46;7.43;;;2.85;;
42332;SDS011;27984;51.476;5.702;2022-12-07T15:43:13;10.45;;;3.13;;
42332;SDS011;27984;51.476;5.702;2022-12-07T15:45:57;5.55;;;3.03;;
42332;SDS011;27984;51.476;5.702;2022-12-07T15:48:24;7.75;;;3.40;;
42332;SDS011;27984;51.476;5.702;2022-12-07T15:50:50;7.70;;;3.20;;
42332;SDS011;27984;51.476;5.702;2022-12-07T15:53:21;6.80;;;3.22;;
42332;SDS011;27984;51.476;5.702;2022-12-07T15:55:48;6.85;;;3.40;;
42332;SDS011;27984;51.476;5.702;2022-12-07T15:58:14;10.23;;;4.20;;
42332;SDS011;27984;51.476;5.702;2022-12-07T16:00:40;9.20;;;4.43;;
42332;SDS011;27984;51.476;5.702;2022-12-07T16:03:06;6.18;;;4.47;;
42332;SDS011;27984;51.476;5.702;2022-12-07T16:05:32;11.85;;;5.20;;
42332;SDS011;27984;51.476;5.702;2022-12-07T16:07:58;9.07;;;4.80;;
42332;SDS011;27984;51.476;5.702;2022-12-07T16:10:24;13.45;;;4.63;;
42332;SDS011;27984;51.476;5.702;2022-12-07T16:12:50;8.18;;;4.35;;
42332;SDS011;27984;51.476;5.702;2022-12-07T16:15:16;10.15;;;4.43;;
42332;SDS011;27984;51.476;5.702;2022-12-07T16:17:42;15.07;;;6.75;;
42332;SDS011;27984;51.476;5.702;2022-12-07T16:20:08;9.95;;;5.20;;
42332;SDS011;27984;51.476;5.702;2022-12-07T16:22:34;6.65;;;4.15;;
42332;SDS011;27984;51.476;5.702;2022-12-07T16:25:01;8.65;;;4.80;;
42332;SDS011;27984;51.476;5.702;2022-12-07T16:27:27;7.40;;;4.15;;
42332;SDS011;27984;51.476;5.702;2022-12-07T16:29:53;6.05;;;3.80;;
42332;SDS011;27984;51.476;5.702;2022-12-07T16:32:19;8.75;;;3.75;;
42332;SDS011;27984;51.476;5.702;2022-12-07T16:34:45;5.55;;;3.95;;
42332;SDS011;27984;51.476;5.702;2022-12-07T16:37:11;8.15;;;3.78;;